createdAt,value
2018-11-01T00:00:44.275Z,94739.21
2018-11-01T00:03:13.533Z,94741.95
2018-11-01T00:05:42.779Z,94727.15
2018-11-01T00:08:12.014Z,94711.84
2018-11-01T00:10:41.257Z,94714.17
2018-11-01T00:13:10.474Z,94721.14
2018-11-01T00:15:40.789Z,94735.98
2018-11-01T00:18:10.038Z,94743.42
2018-11-01T00:20:39.273Z,94743.09
2018-11-01T00:23:08.542Z,94740.38
2018-11-01T00:25:37.776Z,94737.45
2018-11-01T00:28:07.034Z,94730.48
2018-11-01T00:30:36.254Z,94730.55
2018-11-01T00:33:05.754Z,94729.33
2018-11-01T00:35:34.985Z,94726.52
2018-11-01T00:38:04.221Z,94730.25
2018-11-01T00:40:33.442Z,94732.44
2018-11-01T00:43:02.682Z,94731.14
2018-11-01T00:45:32.035Z,94727.66
2018-11-01T00:48:01.274Z,94716.19
2018-11-01T00:50:30.507Z,94713.59
2018-11-01T00:52:59.741Z,94716.70
2018-11-01T00:55:28.985Z,94716.61
2018-11-01T00:57:58.234Z,94710.36
2018-11-01T01:00:27.478Z,94707.27
2018-11-01T01:02:56.713Z,94703.59
2018-11-01T01:05:25.937Z,94698.01
2018-11-01T01:07:55.154Z,94687.53
2018-11-01T01:10:24.383Z,94678.91
2018-11-01T01:12:53.632Z,94663.98
2018-11-01T01:15:22.849Z,94659.63
2018-11-01T01:17:52.082Z,94659.54
2018-11-01T01:20:21.306Z,94666.08
2018-11-01T01:22:50.546Z,94671.27
2018-11-01T01:25:19.979Z,94667.89
2018-11-01T01:27:49.250Z,94663.31
2018-11-01T01:30:19.826Z,94667.02
2018-11-01T01:32:49.467Z,94665.72
2018-11-01T01:35:18.885Z,94663.42
2018-11-01T01:37:48.130Z,94657.53
2018-11-01T01:40:17.403Z,94661.73
2018-11-01T01:42:49.677Z,94683.95
2018-11-01T01:45:19.340Z,94703.22
2018-11-01T01:47:48.618Z,94685.03
2018-11-01T01:50:18.516Z,94678.70
2018-11-01T01:52:47.904Z,94678.14
2018-11-01T01:55:17.838Z,94672.53
2018-11-01T01:57:47.083Z,94665.19
2018-11-01T02:00:17.486Z,94654.16
2018-11-01T02:02:48.040Z,94660.81
2018-11-01T02:05:17.262Z,94664.70
2018-11-01T02:07:46.485Z,94657.05
2018-11-01T02:10:16.646Z,94656.36
2018-11-01T02:12:45.867Z,94650.73
2018-11-01T02:15:17.930Z,94653.62
2018-11-01T02:17:47.141Z,94648.82
2018-11-01T02:20:17.505Z,94643.30
2018-11-01T02:22:47.095Z,94641.59
2018-11-01T02:25:16.342Z,94633.11
2018-11-01T02:27:50.855Z,94631.14
2018-11-01T02:30:20.086Z,94642.77
2018-11-01T02:32:49.342Z,94643.89
2018-11-01T02:35:19.499Z,94640.66
2018-11-01T02:37:48.828Z,94635.19
2018-11-01T02:40:18.283Z,94628.02
2018-11-01T02:42:47.574Z,94613.03
2018-11-01T02:45:16.902Z,94611.67
2018-11-01T02:47:46.155Z,94614.98
2018-11-01T02:50:15.706Z,94605.59
2018-11-01T02:52:44.958Z,94598.52
2018-11-01T02:55:14.203Z,94588.56
2018-11-01T02:57:43.428Z,94585.42
2018-11-01T03:00:14.562Z,94590.59
2018-11-01T03:02:43.801Z,94601.59
2018-11-01T03:05:13.414Z,94582.94
2018-11-01T03:07:42.764Z,94576.03
2018-11-01T03:10:13.299Z,94571.91
2018-11-01T03:12:42.722Z,94587.36
2018-11-01T03:15:13.664Z,94570.67
2018-11-01T03:17:42.995Z,94555.16
2018-11-01T03:20:12.745Z,94555.49
2018-11-01T03:22:42.222Z,94551.99
2018-11-01T03:25:11.640Z,94544.64
2018-11-01T03:27:40.890Z,94542.40
2018-11-01T03:30:10.549Z,94542.48
2018-11-01T03:32:39.811Z,94541.86
2018-11-01T03:35:10.131Z,94536.95
2018-11-01T03:37:39.419Z,94546.02
2018-11-01T03:40:10.023Z,94531.22
2018-11-01T03:42:39.868Z,94538.72
2018-11-01T03:45:10.599Z,94560.55
2018-11-01T03:47:39.972Z,94579.28
2018-11-01T03:50:09.352Z,94574.30
2018-11-01T03:52:38.620Z,94550.22
2018-11-01T03:55:09.338Z,94546.21
2018-11-01T03:57:38.558Z,94550.33
2018-11-01T04:00:11.355Z,94544.52
2018-11-01T04:02:40.649Z,94535.84
2018-11-01T04:05:10.026Z,94536.20
2018-11-01T04:07:39.562Z,94529.84
2018-11-01T04:10:09.920Z,94526.43
2018-11-01T04:12:39.184Z,94526.78
2018-11-01T04:15:11.150Z,94522.15
2018-11-01T04:17:40.429Z,94526.70
2018-11-01T04:20:10.921Z,94520.32
2018-11-01T04:22:41.575Z,94517.08
2018-11-01T04:25:10.848Z,94506.47
2018-11-01T04:27:40.095Z,94504.85
2018-11-01T04:30:09.618Z,94481.45
2018-11-01T04:32:38.845Z,94477.35
2018-11-01T04:35:09.643Z,94473.89
2018-11-01T04:37:38.961Z,94474.43
2018-11-01T04:40:08.595Z,94483.47
2018-11-01T04:42:37.790Z,94497.07
2018-11-01T04:45:08.827Z,94497.06
2018-11-01T04:47:38.186Z,94472.09
2018-11-01T04:50:08.399Z,94463.02
2018-11-01T04:52:37.598Z,94463.78
2018-11-01T04:55:07.500Z,94445.91
2018-11-01T04:57:36.695Z,94442.46
2018-11-01T05:00:10.146Z,94440.34
2018-11-01T05:02:39.552Z,94431.56
2018-11-01T05:05:08.814Z,94424.23
2018-11-01T05:07:38.312Z,94431.84
2018-11-01T05:10:09.176Z,94426.62
2018-11-01T05:12:38.949Z,94408.11
2018-11-01T05:20:09.984Z,94414.34
2018-11-01T05:22:39.442Z,94405.07
2018-11-01T05:25:09.372Z,94397.48
2018-11-01T05:27:38.702Z,94381.87
2018-11-01T05:30:10.143Z,94378.58
2018-11-01T05:32:39.435Z,94380.51
2018-11-01T05:35:08.919Z,94409.34
2018-11-01T05:37:38.147Z,94410.98
2018-11-01T05:40:09.234Z,94398.50
2018-11-01T05:42:38.436Z,94400.02
2018-11-01T05:45:07.623Z,94390.16
2018-11-01T05:47:36.825Z,94385.60
2018-11-01T05:50:06.611Z,94384.05
2018-11-01T05:52:35.814Z,94386.73
2018-11-01T05:55:05.544Z,94397.48
2018-11-01T05:57:34.772Z,94399.80
2018-11-01T06:00:04.196Z,94382.84
2018-11-01T06:02:38.893Z,94388.72
2018-11-01T06:05:08.790Z,94394.64
2018-11-01T06:07:43.612Z,94391.89
2018-11-01T06:10:12.822Z,94385.31
2018-11-01T06:12:42.047Z,94377.29
2018-11-01T06:15:11.597Z,94391.59
2018-11-01T06:17:41.128Z,94398.71
2018-11-01T06:20:11.045Z,94403.27
2018-11-01T06:22:40.254Z,94405.16
2018-11-01T06:25:10.106Z,94391.19
2018-11-01T06:27:39.292Z,94397.73
2018-11-01T06:30:11.616Z,94400.05
2018-11-01T06:32:40.786Z,94375.38
2018-11-01T06:35:15.103Z,94366.69
2018-11-01T06:37:45.230Z,94367.42
2018-11-01T06:40:14.448Z,94368.91
2018-11-01T06:42:43.635Z,94373.89
2018-11-01T06:45:12.838Z,94384.33
2018-11-01T06:47:42.046Z,94383.56
2018-11-01T06:50:11.226Z,94373.42
2018-11-01T06:52:40.427Z,94379.98
2018-11-01T06:55:11.072Z,94391.66
2018-11-01T06:57:40.278Z,94395.08
2018-11-01T07:00:12.664Z,94396.50
2018-11-01T07:02:42.087Z,94401.86
2018-11-01T07:05:11.335Z,94401.67
2018-11-01T07:07:40.740Z,94404.53
2018-11-01T07:10:12.393Z,94410.30
2018-11-01T07:12:41.592Z,94418.50
2018-11-01T07:15:12.239Z,94418.10
2018-11-01T07:22:40.594Z,94432.52
2018-11-01T07:25:14.186Z,94436.51
2018-11-01T07:27:43.397Z,94434.48
2018-11-01T07:30:15.871Z,94450.11
2018-11-01T07:32:45.147Z,94449.19
2018-11-01T07:35:14.790Z,94444.52
2018-11-01T07:37:45.018Z,94445.91
2018-11-01T07:40:18.113Z,94451.11
2018-11-01T07:42:47.333Z,94434.95
2018-11-01T07:45:16.718Z,94425.41
2018-11-01T07:47:46.350Z,94411.70
2018-11-01T07:50:15.720Z,94394.05
2018-11-01T07:52:44.951Z,94405.96
2018-11-01T07:55:15.266Z,94392.30
2018-11-01T07:57:44.503Z,94403.23
2018-11-01T08:00:15.357Z,94392.05
2018-11-01T08:02:45.458Z,94387.56
2018-11-01T08:05:14.894Z,94371.97
2018-11-01T08:07:44.118Z,94375.39
2018-11-01T08:10:18.518Z,94377.45
2018-11-01T08:12:48.303Z,94376.47
2018-11-01T08:15:19.690Z,94385.63
2018-11-01T08:17:48.936Z,94392.66
2018-11-01T08:20:18.731Z,94392.97
2018-11-01T08:22:47.570Z,94396.72
2018-11-01T08:25:16.820Z,94388.86
2018-11-01T08:27:46.004Z,94388.20
2018-11-01T08:30:16.397Z,94367.13
2018-11-01T08:32:45.607Z,94363.05
2018-11-01T08:35:14.889Z,94363.95
2018-11-01T08:37:44.713Z,94368.22
2018-11-01T08:40:14.150Z,94372.30
2018-11-01T08:42:43.455Z,94374.79
2018-11-01T08:45:13.875Z,94372.67
2018-11-01T08:47:43.062Z,94357.91
2018-11-01T08:50:13.451Z,94350.64
2018-11-01T08:52:43.220Z,94343.58
2018-11-01T08:55:12.705Z,94353.88
2018-11-01T08:57:42.912Z,94358.28
2018-11-01T09:00:12.799Z,94371.36
2018-11-01T09:02:42.746Z,94353.41
2018-11-01T09:05:12.603Z,94348.25
2018-11-01T09:07:42.095Z,94381.39
2018-11-01T09:10:14.523Z,94364.58
2018-11-01T09:12:44.040Z,94348.44
2018-11-01T09:15:14.500Z,94353.19
2018-11-01T09:17:43.693Z,94344.45
2018-11-01T09:20:13.274Z,94354.38
2018-11-01T09:22:43.213Z,94344.36
2018-11-01T09:25:12.398Z,94344.61
2018-11-01T09:27:41.591Z,94342.41
2018-11-01T09:30:13.258Z,94356.69
2018-11-01T09:32:42.684Z,94357.55
2018-11-01T09:35:12.509Z,94385.77
2018-11-01T09:37:42.307Z,94371.27
2018-11-01T09:40:13.898Z,94364.58
2018-11-01T09:42:43.576Z,94375.56
2018-11-01T09:45:13.103Z,94364.18
2018-11-01T09:47:42.604Z,94372.73
2018-11-01T09:50:12.008Z,94380.81
2018-11-01T09:52:41.364Z,94403.50
2018-11-01T09:55:10.551Z,94408.92
2018-11-01T09:57:40.811Z,94412.73
2018-11-01T10:00:12.307Z,94422.77
2018-11-01T10:02:41.728Z,94429.11
2018-11-01T10:05:11.310Z,94437.20
2018-11-01T10:07:40.603Z,94427.11
2018-11-01T10:10:11.547Z,94422.65
2018-11-01T10:12:41.080Z,94438.98
2018-11-01T10:15:10.954Z,94441.94
2018-11-01T10:17:40.415Z,94429.11
2018-11-01T10:20:11.998Z,94415.31
2018-11-01T10:22:41.413Z,94403.68
2018-11-01T10:25:12.337Z,94390.66
2018-11-01T10:27:41.498Z,94382.38
2018-11-01T10:30:16.618Z,94391.09
2018-11-01T10:32:45.950Z,94397.86
2018-11-01T10:35:15.988Z,94401.58
2018-11-01T10:37:45.489Z,94400.16
2018-11-01T10:40:17.074Z,94399.41
2018-11-01T10:42:46.279Z,94394.11
2018-11-01T10:45:15.492Z,94382.48
2018-11-01T10:47:44.787Z,94381.52
2018-11-01T10:50:17.128Z,94379.45
2018-11-01T10:52:46.412Z,94379.74
2018-11-01T10:55:15.610Z,94369.44
2018-11-01T10:57:44.794Z,94365.28
2018-11-01T11:00:19.359Z,94369.95
2018-11-01T11:02:49.603Z,94369.02
2018-11-01T11:05:19.838Z,94367.52
2018-11-01T11:07:49.383Z,94364.02
2018-11-01T11:10:18.894Z,94354.93
2018-11-01T11:12:48.372Z,94357.12
2018-11-01T11:15:17.550Z,94359.05
2018-11-01T11:17:46.745Z,94356.05
2018-11-01T11:20:16.077Z,94348.48
2018-11-01T11:22:45.134Z,94362.66
2018-11-01T11:25:14.331Z,94359.13
2018-11-01T11:27:43.552Z,94351.98
2018-11-01T11:30:13.402Z,94341.67
2018-11-01T11:32:42.432Z,94333.71
2018-11-01T11:35:11.935Z,94321.18
2018-11-01T11:37:41.168Z,94325.87
2018-11-01T11:40:11.647Z,94331.41
2018-11-01T11:42:41.079Z,94340.23
2018-11-01T11:45:11.566Z,94334.92
2018-11-01T11:47:41.191Z,94336.06
2018-11-01T11:50:11.854Z,94339.70
2018-11-01T11:52:41.546Z,94350.72
2018-11-01T11:55:11.273Z,94358.05
2018-11-01T11:57:40.472Z,94363.50
2018-11-01T12:00:12.611Z,94363.17
2018-11-01T12:02:41.951Z,94353.70
2018-11-01T12:05:11.164Z,94355.69
2018-11-01T12:07:40.350Z,94353.06
2018-11-01T12:10:11.435Z,94356.09
2018-11-01T12:12:40.660Z,94358.39
2018-11-01T12:15:09.922Z,94369.89
2018-11-01T12:17:39.267Z,94379.06
2018-11-01T12:20:10.402Z,94374.75
2018-11-01T12:22:39.632Z,94375.94
2018-11-01T12:25:09.320Z,94382.13
2018-11-01T12:27:39.734Z,94373.78
2018-11-01T12:30:11.263Z,94362.05
2018-11-01T12:32:40.458Z,94359.13
2018-11-01T12:35:10.317Z,94359.87
2018-11-01T12:37:39.602Z,94373.42
2018-11-01T12:40:10.543Z,94381.94
2018-11-01T12:42:39.758Z,94386.71
2018-11-01T12:45:10.557Z,94381.06
2018-11-01T12:47:39.906Z,94381.23
2018-11-01T12:50:11.214Z,94381.00
2018-11-01T12:52:40.442Z,94379.14
2018-11-01T12:55:09.790Z,94376.01
2018-11-01T12:57:39.050Z,94377.73
2018-11-01T13:00:10.102Z,94388.86
2018-11-01T13:02:39.431Z,94388.39
2018-11-01T13:05:08.510Z,94378.66
2018-11-01T13:07:37.706Z,94394.42
2018-11-01T13:10:06.910Z,94398.30
2018-11-01T13:12:36.130Z,94402.11
2018-11-01T13:15:06.419Z,94395.46
2018-11-01T13:17:35.615Z,94412.53
2018-11-01T13:20:04.840Z,94403.41
2018-11-01T13:22:34.044Z,94405.02
2018-11-01T13:25:03.246Z,94402.92
2018-11-01T13:27:32.447Z,94407.36
2018-11-01T13:30:01.656Z,94393.33
2018-11-01T13:32:31.118Z,94396.20
2018-11-01T13:35:00.348Z,94406.05
2018-11-01T13:37:29.510Z,94416.64
2018-11-01T13:39:58.778Z,94412.85
2018-11-01T13:42:28.193Z,94418.66
2018-11-01T13:44:57.371Z,94423.81
2018-11-01T13:47:26.577Z,94428.03
2018-11-01T13:49:55.754Z,94433.39
2018-11-01T13:52:24.956Z,94438.68
2018-11-01T13:54:54.159Z,94443.52
2018-11-01T13:57:24.485Z,94449.48
2018-11-01T13:59:55.188Z,94446.59
2018-11-01T14:02:24.375Z,94458.23
2018-11-01T14:04:53.591Z,94455.83
2018-11-01T14:07:24.010Z,94451.34
2018-11-01T14:09:53.188Z,94456.70
2018-11-01T14:12:22.389Z,94460.39
2018-11-01T14:14:51.926Z,94460.94
2018-11-01T14:17:20.797Z,94468.31
2018-11-01T14:19:50.002Z,94471.73
2018-11-01T14:22:19.206Z,94471.68
2018-11-01T14:24:48.395Z,94478.48
2018-11-01T14:27:17.680Z,94479.66
2018-11-01T14:29:47.806Z,94484.11
2018-11-01T14:32:17.006Z,94482.16
2018-11-01T14:34:46.223Z,94487.38
2018-11-01T14:37:15.721Z,94484.38
2018-11-01T14:39:44.958Z,94484.99
2018-11-01T14:42:14.258Z,94490.30
2018-11-01T14:44:43.571Z,94497.09
2018-11-01T14:47:12.788Z,94503.98
2018-11-01T14:49:41.998Z,94504.79
2018-11-01T14:52:11.424Z,94513.58
2018-11-01T14:54:41.484Z,94518.07
2018-11-01T14:57:10.265Z,94513.81
2018-11-01T14:59:40.372Z,94520.11
2018-11-01T15:02:08.091Z,94525.69
2018-11-01T15:04:37.277Z,94528.06
2018-11-01T15:07:06.666Z,94530.94
2018-11-01T15:09:35.861Z,94528.02
2018-11-01T15:12:05.190Z,94533.73
2018-11-01T15:14:34.457Z,94539.75
2018-11-01T15:17:03.619Z,94538.93
2018-11-01T15:19:32.806Z,94543.17
2018-11-01T15:22:02.020Z,94550.41
2018-11-01T15:24:31.243Z,94557.11
2018-11-01T15:27:00.780Z,94557.73
2018-11-01T15:29:31.075Z,94556.69
2018-11-01T15:32:02.352Z,94561.29
2018-11-01T15:34:32.367Z,94563.81
2018-11-01T15:37:01.567Z,94573.67
2018-11-01T15:39:30.762Z,94574.61
2018-11-01T15:41:59.970Z,94580.84
2018-11-01T15:44:29.174Z,94578.55
2018-11-01T15:46:58.385Z,94584.66
2018-11-01T15:49:27.584Z,94589.37
2018-11-01T15:51:56.841Z,94590.05
2018-11-01T15:54:25.982Z,94587.08
2018-11-01T15:56:55.198Z,94596.26
2018-11-01T15:59:24.462Z,94602.46
2018-11-01T16:01:53.623Z,94608.53
2018-11-01T16:04:22.851Z,94618.79
2018-11-01T16:06:53.167Z,94621.81
2018-11-01T16:09:22.374Z,94632.11
2018-11-01T16:11:51.567Z,94639.19
2018-11-01T16:14:20.771Z,94644.30
2018-11-01T16:16:49.992Z,94638.52
2018-11-01T16:19:19.279Z,94648.34
2018-11-01T16:21:48.478Z,94643.77
2018-11-01T16:24:17.720Z,94647.23
2018-11-01T16:26:46.927Z,94644.61
2018-11-01T16:29:16.143Z,94653.69
2018-11-01T16:31:45.343Z,94640.06
2018-11-01T16:34:14.566Z,94658.37
2018-11-01T16:36:44.017Z,94663.73
2018-11-01T16:39:13.664Z,94669.64
2018-11-01T16:41:42.836Z,94669.36
2018-11-01T16:44:12.358Z,94663.77
2018-11-01T16:46:41.598Z,94674.64
2018-11-01T16:49:11.207Z,94689.97
2018-11-01T16:51:40.431Z,94691.05
2018-11-01T16:54:09.691Z,94694.70
2018-11-01T16:56:38.880Z,94703.02
2018-11-01T16:59:08.075Z,94707.42
2018-11-01T17:01:37.243Z,94709.56
2018-11-01T17:04:07.013Z,94712.47
2018-11-01T17:06:36.214Z,94710.94
2018-11-01T17:09:08.694Z,94710.44
2018-11-01T17:11:38.048Z,94713.51
2018-11-01T17:14:07.508Z,94707.98
2018-11-01T17:16:37.524Z,94721.78
2018-11-01T17:19:08.086Z,94727.29
2018-11-01T17:21:37.483Z,94725.78
2018-11-01T17:24:07.297Z,94723.05
2018-11-01T17:26:36.543Z,94733.06
2018-11-01T17:29:05.975Z,94736.17
2018-11-01T17:31:35.170Z,94747.14
2018-11-01T17:34:04.459Z,94758.30
2018-11-01T17:36:33.555Z,94764.67
2018-11-01T17:39:02.819Z,94759.01
2018-11-01T17:41:32.007Z,94771.94
2018-11-01T17:44:01.223Z,94771.61
2018-11-01T17:46:30.528Z,94772.13
2018-11-01T17:48:59.639Z,94787.73
2018-11-01T17:51:28.912Z,94790.41
2018-11-01T17:53:58.056Z,94788.14
2018-11-01T17:56:27.759Z,94793.46
2018-11-01T17:58:57.652Z,94790.52
2018-11-01T18:01:26.814Z,94800.11
2018-11-01T18:03:56.056Z,94804.59
2018-11-01T18:06:25.273Z,94803.09
2018-11-01T18:08:55.759Z,94802.06
2018-11-01T18:11:24.907Z,94804.02
2018-11-01T18:13:54.234Z,94814.66
2018-11-01T18:16:23.425Z,94817.91
2018-11-01T18:18:52.592Z,94822.12
2018-11-01T18:21:21.811Z,94830.23
2018-11-01T18:23:50.987Z,94830.73
2018-11-01T18:26:20.188Z,94839.97
2018-11-01T18:28:49.451Z,94842.76
2018-11-01T18:31:18.661Z,94836.29
2018-11-01T18:33:47.803Z,94831.63
2018-11-01T18:36:17.203Z,94824.08
2018-11-01T18:38:46.482Z,94836.03
2018-11-01T18:41:15.690Z,94840.28
2018-11-01T18:43:44.910Z,94836.54
2018-11-01T18:46:14.155Z,94840.87
2018-11-01T18:48:43.958Z,94837.56
2018-11-01T18:51:13.211Z,94841.56
2018-11-01T18:53:42.411Z,94854.98
2018-11-01T18:56:13.408Z,94856.33
2018-11-01T18:58:42.591Z,94851.21
2018-11-01T19:01:11.799Z,94854.41
2018-11-01T19:03:40.998Z,94845.55
2018-11-01T19:06:10.201Z,94846.41
2018-11-01T19:08:40.491Z,94854.48
2018-11-01T19:11:09.755Z,94865.70
2018-11-01T19:13:39.080Z,94879.78
2018-11-01T19:16:08.330Z,94886.03
2018-11-01T19:18:37.510Z,94890.67
2018-11-01T19:21:06.927Z,94889.40
2018-11-01T19:23:36.122Z,94896.37
2018-11-01T19:26:05.542Z,94907.00
2018-11-01T19:28:34.767Z,94914.03
2018-11-01T19:31:04.026Z,94919.09
2018-11-01T19:33:33.327Z,94923.44
2018-11-01T19:36:02.551Z,94932.50
2018-11-01T19:38:31.755Z,94931.41
2018-11-01T19:41:00.975Z,94936.39
2018-11-01T19:43:30.278Z,94937.16
2018-11-01T19:45:59.475Z,94942.69
2018-11-01T19:48:28.684Z,94949.13
2018-11-01T19:50:57.935Z,94953.38
2018-11-01T19:53:27.120Z,94955.11
2018-11-01T19:55:56.313Z,94960.87
2018-11-01T19:58:25.878Z,94965.16
2018-11-01T20:00:55.095Z,94962.00
2018-11-01T20:03:24.311Z,94966.67
2018-11-01T20:05:54.772Z,94970.76
2018-11-01T20:08:23.989Z,94975.84
2018-11-01T20:10:53.177Z,94983.98
2018-11-01T20:13:22.388Z,94987.61
2018-11-01T20:15:51.661Z,95006.61
2018-11-01T20:18:20.896Z,95023.05
2018-11-01T20:20:50.070Z,95021.57
2018-11-01T20:23:19.304Z,95021.23
2018-11-01T20:25:48.655Z,95036.58
2018-11-01T20:28:17.736Z,95033.75
2018-11-01T20:30:46.987Z,95034.48
2018-11-01T20:33:16.181Z,95042.71
2018-11-01T20:35:45.398Z,95038.70
2018-11-01T20:38:14.928Z,95052.86
2018-11-01T20:40:44.132Z,95065.48
2018-11-01T20:43:13.340Z,95075.05
2018-11-01T20:45:42.606Z,95091.37
2018-11-01T20:48:11.838Z,95101.90
2018-11-01T20:50:41.015Z,95101.33
2018-11-01T20:53:10.234Z,95096.62
2018-11-01T20:55:39.472Z,95094.50
2018-11-01T20:58:08.690Z,95109.94
2018-11-01T21:00:37.888Z,95114.53
2018-11-01T21:03:07.286Z,95124.20
2018-11-01T21:05:37.815Z,95122.33
2018-11-01T21:08:07.031Z,95129.52
2018-11-01T21:10:36.562Z,95130.69
2018-11-01T21:13:06.156Z,95136.50
2018-11-01T21:15:35.381Z,95133.66
2018-11-01T21:18:04.614Z,95139.02
2018-11-01T21:20:33.804Z,95151.98
2018-11-01T21:23:03.046Z,95161.83
2018-11-01T21:25:32.246Z,95165.17
2018-11-01T21:28:01.441Z,95165.05
2018-11-01T21:30:30.651Z,95157.22
2018-11-01T21:32:59.855Z,95155.09
2018-11-01T21:35:29.173Z,95156.23
2018-11-01T21:37:58.254Z,95165.42
2018-11-01T21:43:26.792Z,95159.03
2018-11-01T21:45:56.035Z,95164.96
2018-11-01T21:48:25.226Z,95162.50
2018-11-01T21:50:54.430Z,95160.48
2018-11-01T21:53:23.709Z,95157.85
2018-11-01T21:55:52.886Z,95156.80
2018-11-01T21:58:22.082Z,95158.86
2018-11-01T22:00:51.319Z,95156.52
2018-11-01T22:03:20.518Z,95151.94
2018-11-01T22:05:49.759Z,95162.64
2018-11-01T22:08:19.001Z,95165.09
2018-11-01T22:10:48.217Z,95175.62
2018-11-01T22:13:17.423Z,95175.16
2018-11-01T22:15:46.628Z,95171.14
2018-11-01T22:18:18.822Z,95178.31
2018-11-01T22:20:48.256Z,95177.23
2018-11-01T22:23:17.474Z,95183.08
2018-11-01T22:25:46.675Z,95190.63
2018-11-01T22:28:15.943Z,95196.49
2018-11-01T22:30:46.333Z,95208.31
2018-11-01T22:33:15.538Z,95212.63
2018-11-01T22:35:44.753Z,95219.92
2018-11-01T22:38:14.009Z,95220.94
2018-11-01T22:40:43.185Z,95220.95
2018-11-01T22:43:12.388Z,95214.40
2018-11-01T22:45:41.603Z,95202.27
2018-11-01T22:48:10.826Z,95209.44
2018-11-01T22:50:40.039Z,95216.16
2018-11-01T22:53:09.251Z,95216.73
2018-11-01T22:55:38.435Z,95215.29
2018-11-01T22:58:07.660Z,95218.71
2018-11-01T23:00:40.936Z,95218.80
2018-11-01T23:03:10.366Z,95227.10
2018-11-01T23:05:39.566Z,95230.43
2018-11-01T23:08:09.071Z,95227.55
2018-11-01T23:10:38.271Z,95215.13
2018-11-01T23:13:07.479Z,95220.05
2018-11-01T23:15:36.675Z,95214.64
2018-11-01T23:18:05.914Z,95229.87
2018-11-01T23:20:35.100Z,95234.35
2018-11-01T23:23:04.300Z,95230.70
2018-11-01T23:25:33.495Z,95231.41
2018-11-01T23:28:02.699Z,95232.36
2018-11-01T23:30:31.894Z,95235.57
2018-11-01T23:33:01.165Z,95237.81
2018-11-01T23:35:30.294Z,95250.29
2018-11-01T23:38:04.617Z,95257.72
2018-11-01T23:40:39.087Z,95259.50
2018-11-01T23:43:13.559Z,95257.97
2018-11-01T23:45:47.916Z,95258.33
2018-11-01T23:48:16.211Z,95265.98
2018-11-01T23:50:52.415Z,95268.80
2018-11-01T23:53:23.781Z,95271.39
2018-11-01T23:55:54.202Z,95271.62
2018-11-01T23:58:23.497Z,95254.78
